createdAt,value
2023-01-09T00:00:27.245Z,973.95
2023-01-09T00:01:27.214Z,974.00
2023-01-09T00:02:27.235Z,973.96
2023-01-09T00:03:27.196Z,973.92
2023-01-09T00:04:27.264Z,973.82
2023-01-09T00:05:27.178Z,973.87
2023-01-09T00:06:27.170Z,973.91
2023-01-09T00:07:27.160Z,973.99
2023-01-09T00:08:27.149Z,973.83
2023-01-09T00:09:27.170Z,973.95
2023-01-09T00:10:27.141Z,973.98
2023-01-09T00:11:27.133Z,973.93
2023-01-09T00:12:27.119Z,973.89
2023-01-09T00:13:27.116Z,973.96
2023-01-09T00:14:27.134Z,973.93
2023-01-09T00:15:27.097Z,974.00
2023-01-09T00:16:27.205Z,973.97
2023-01-09T00:17:27.083Z,973.95
2023-01-09T00:18:27.074Z,973.93
2023-01-09T00:19:27.094Z,973.87
2023-01-09T00:20:27.073Z,973.87
2023-01-09T00:21:27.060Z,973.90
2023-01-09T00:22:27.044Z,973.84
2023-01-09T00:23:27.034Z,973.90
2023-01-09T00:24:27.057Z,973.84
2023-01-09T00:25:27.027Z,973.85
2023-01-09T00:26:27.013Z,973.80
2023-01-09T00:27:27.005Z,973.78
2023-01-09T00:28:27.003Z,973.83
2023-01-09T00:29:27.018Z,973.84
2023-01-09T00:30:27.007Z,973.81
2023-01-09T00:31:26.984Z,973.80
2023-01-09T00:32:26.970Z,973.86
2023-01-09T00:33:26.961Z,973.77
2023-01-09T00:34:26.988Z,973.79
2023-01-09T00:35:26.950Z,973.73
2023-01-09T00:36:26.945Z,973.69
2023-01-09T00:37:26.932Z,973.73
2023-01-09T00:38:26.925Z,973.70
2023-01-09T00:39:26.940Z,973.70
2023-01-09T00:40:26.919Z,973.68
2023-01-09T00:41:26.906Z,973.67
2023-01-09T00:42:26.897Z,973.68
2023-01-09T00:43:26.882Z,973.73
2023-01-09T00:44:26.905Z,973.77
2023-01-09T00:45:26.872Z,973.76
2023-01-09T00:46:26.871Z,973.71
2023-01-09T00:47:26.853Z,973.71
2023-01-09T00:48:26.871Z,973.69
2023-01-09T00:49:26.838Z,973.67
2023-01-09T00:50:26.854Z,973.66
2023-01-09T00:51:26.828Z,973.65
2023-01-09T00:52:26.822Z,973.66
2023-01-09T00:53:26.802Z,973.73
2023-01-09T00:54:26.794Z,973.67
2023-01-09T00:55:26.822Z,973.66
2023-01-09T00:56:26.781Z,973.62
2023-01-09T00:57:26.771Z,973.60
2023-01-09T00:58:26.765Z,973.58
2023-01-09T00:59:26.758Z,973.63
2023-01-09T01:00:26.777Z,973.61
2023-01-09T01:01:26.840Z,973.64
2023-01-09T01:02:26.839Z,973.56
2023-01-09T01:03:26.726Z,973.64
2023-01-09T01:04:26.716Z,973.55
2023-01-09T01:05:26.733Z,973.56
2023-01-09T01:06:26.701Z,973.56
2023-01-09T01:07:26.694Z,973.52
2023-01-09T01:08:26.690Z,973.61
2023-01-09T01:09:26.686Z,973.60
2023-01-09T01:10:26.702Z,973.59
2023-01-09T01:11:26.672Z,973.53
2023-01-09T01:12:26.655Z,973.57
2023-01-09T01:13:26.649Z,973.53
2023-01-09T01:14:26.636Z,973.62
2023-01-09T01:15:26.658Z,973.55
2023-01-09T01:16:26.723Z,973.56
2023-01-09T01:17:26.644Z,973.56
2023-01-09T01:18:26.606Z,973.55
2023-01-09T01:19:26.597Z,973.55
2023-01-09T01:20:26.619Z,973.58
2023-01-09T01:21:26.588Z,973.63
2023-01-09T01:22:26.575Z,973.62
2023-01-09T01:23:26.564Z,973.57
2023-01-09T01:24:26.557Z,973.55
2023-01-09T01:25:26.577Z,973.61
2023-01-09T01:26:26.545Z,973.54
2023-01-09T01:27:26.573Z,973.57
2023-01-09T01:28:26.528Z,973.57
2023-01-09T01:29:26.524Z,973.57
2023-01-09T01:30:26.569Z,973.55
2023-01-09T01:31:26.505Z,973.59
2023-01-09T01:32:26.501Z,973.54
2023-01-09T01:33:26.488Z,973.56
2023-01-09T01:34:26.481Z,973.56
2023-01-09T01:35:26.512Z,973.56
2023-01-09T01:36:26.481Z,973.56
2023-01-09T01:37:26.483Z,973.56
2023-01-09T01:38:26.455Z,973.55
2023-01-09T01:39:26.449Z,973.64
2023-01-09T01:40:26.473Z,973.56
2023-01-09T01:41:26.431Z,973.49
2023-01-09T01:42:26.422Z,973.46
2023-01-09T01:43:26.415Z,973.56
2023-01-09T01:44:26.410Z,973.46
2023-01-09T01:45:26.397Z,973.46
2023-01-09T01:46:26.421Z,973.58
2023-01-09T01:47:26.383Z,973.49
2023-01-09T01:48:26.375Z,973.50
2023-01-09T01:49:26.371Z,973.52
2023-01-09T01:50:26.391Z,973.45
2023-01-09T01:51:26.354Z,973.47
2023-01-09T01:52:26.346Z,973.50
2023-01-09T01:53:26.360Z,973.47
2023-01-09T01:54:26.334Z,973.47
2023-01-09T01:55:26.347Z,973.52
2023-01-09T01:56:26.316Z,973.48
2023-01-09T01:57:26.308Z,973.51
2023-01-09T01:58:26.304Z,973.42
2023-01-09T01:59:26.296Z,973.45
2023-01-09T02:00:26.320Z,973.46
2023-01-09T02:01:26.390Z,973.45
2023-01-09T02:02:26.344Z,973.37
2023-01-09T02:03:26.267Z,973.34
2023-01-09T02:04:26.258Z,973.45
2023-01-09T02:05:26.280Z,973.33
2023-01-09T02:06:26.248Z,973.32
2023-01-09T02:07:26.230Z,973.29
2023-01-09T02:08:26.232Z,973.24
2023-01-09T02:09:26.214Z,973.27
2023-01-09T02:10:26.204Z,973.22
2023-01-09T02:11:26.224Z,973.21
2023-01-09T02:12:26.185Z,973.21
2023-01-09T02:13:26.183Z,973.23
2023-01-09T02:14:26.175Z,973.24
2023-01-09T02:15:26.196Z,973.17
2023-01-09T02:16:26.168Z,973.23
2023-01-09T02:17:26.151Z,973.19
2023-01-09T02:18:26.165Z,973.17
2023-01-09T02:19:26.132Z,973.17
2023-01-09T02:20:26.126Z,973.08
2023-01-09T02:21:26.139Z,973.09
2023-01-09T02:22:26.113Z,973.11
2023-01-09T02:23:26.114Z,973.07
2023-01-09T02:24:26.097Z,973.10
2023-01-09T02:25:26.093Z,973.05
2023-01-09T02:26:26.108Z,973.00
2023-01-09T02:27:26.074Z,972.99
2023-01-09T02:28:26.058Z,973.05
2023-01-09T02:29:26.066Z,973.00
2023-01-09T02:30:26.053Z,972.97
2023-01-09T02:31:26.096Z,972.95
2023-01-09T02:32:26.035Z,972.92
2023-01-09T02:33:26.025Z,972.93
2023-01-09T02:34:26.021Z,972.92
2023-01-09T02:35:26.020Z,972.86
2023-01-09T02:36:26.038Z,972.85
2023-01-09T02:37:26.001Z,972.86
2023-01-09T02:38:26.000Z,972.84
2023-01-09T02:39:25.989Z,972.81
2023-01-09T02:40:25.983Z,972.80
2023-01-09T02:41:25.997Z,972.79
2023-01-09T02:42:25.965Z,972.75
2023-01-09T02:43:25.956Z,972.75
2023-01-09T02:44:25.968Z,972.75
2023-01-09T02:45:26.061Z,972.76
2023-01-09T02:46:25.961Z,972.75
2023-01-09T02:47:25.929Z,972.83
2023-01-09T02:48:25.927Z,972.85
2023-01-09T02:49:25.950Z,972.84
2023-01-09T02:50:25.897Z,972.84
2023-01-09T02:51:25.894Z,972.84
2023-01-09T02:52:25.887Z,972.81
2023-01-09T02:53:25.876Z,972.80
2023-01-09T02:54:25.903Z,972.81
2023-01-09T02:55:25.863Z,972.78
2023-01-09T02:56:25.856Z,972.80
2023-01-09T02:57:25.854Z,972.81
2023-01-09T02:58:25.839Z,972.72
2023-01-09T02:59:25.835Z,972.78
2023-01-09T03:00:25.850Z,972.69
2023-01-09T03:01:25.935Z,972.79
2023-01-09T03:02:25.812Z,972.78
2023-01-09T03:03:25.802Z,972.68
2023-01-09T03:04:25.792Z,972.70
2023-01-09T03:05:25.822Z,972.72
2023-01-09T03:06:27.579Z,972.80
2023-01-09T03:07:25.783Z,972.71
2023-01-09T03:08:25.761Z,972.70
2023-01-09T03:09:25.758Z,972.72
2023-01-09T03:10:25.781Z,972.67
2023-01-09T03:11:25.744Z,972.63
2023-01-09T03:12:25.739Z,972.70
2023-01-09T03:13:25.725Z,972.60
2023-01-09T03:14:25.761Z,972.62
2023-01-09T03:15:25.716Z,972.70
2023-01-09T03:16:25.779Z,972.61
2023-01-09T03:17:25.702Z,972.60
2023-01-09T03:18:25.693Z,972.59
2023-01-09T03:19:25.705Z,972.57
2023-01-09T03:20:25.670Z,972.57
2023-01-09T03:21:25.665Z,972.58
2023-01-09T03:22:25.670Z,972.62
2023-01-09T03:23:25.645Z,972.59
2023-01-09T03:24:25.671Z,972.60
2023-01-09T03:25:25.642Z,972.66
2023-01-09T03:26:25.628Z,972.65
2023-01-09T03:27:25.612Z,972.66
2023-01-09T03:28:25.603Z,972.66
2023-01-09T03:29:25.630Z,972.74
2023-01-09T03:30:25.590Z,972.70
2023-01-09T03:31:25.595Z,972.74
2023-01-09T03:32:25.568Z,972.71
2023-01-09T03:33:25.563Z,972.70
2023-01-09T03:34:25.565Z,972.71
2023-01-09T03:35:25.576Z,972.72
2023-01-09T03:36:25.543Z,972.72
2023-01-09T03:37:25.532Z,972.79
2023-01-09T03:38:25.527Z,972.80
2023-01-09T03:39:25.528Z,972.77
2023-01-09T03:40:25.543Z,972.74
2023-01-09T03:41:25.513Z,972.71
2023-01-09T03:42:25.496Z,972.75
2023-01-09T03:43:25.500Z,972.80
2023-01-09T03:44:25.478Z,972.83
2023-01-09T03:45:25.546Z,972.84
2023-01-09T03:46:25.468Z,972.83
2023-01-09T03:47:26.460Z,972.82
2023-01-09T03:48:25.450Z,972.88
2023-01-09T03:49:25.496Z,972.90
2023-01-09T03:50:25.445Z,972.87
2023-01-09T03:51:26.427Z,972.86
2023-01-09T03:52:25.420Z,972.86
2023-01-09T03:53:25.415Z,972.84
2023-01-09T03:54:25.431Z,972.83
2023-01-09T03:55:25.394Z,972.82
2023-01-09T03:56:25.384Z,972.79
2023-01-09T03:57:25.378Z,972.79
2023-01-09T03:58:25.373Z,972.72
2023-01-09T03:59:25.374Z,972.79
2023-01-09T04:00:25.384Z,972.83
2023-01-09T04:01:25.450Z,972.90
2023-01-09T04:02:25.348Z,972.89
2023-01-09T04:03:25.340Z,972.96
2023-01-09T04:04:25.328Z,972.92
2023-01-09T04:05:25.345Z,972.87
2023-01-09T04:06:25.313Z,972.85
2023-01-09T04:07:25.310Z,972.89
2023-01-09T04:08:25.297Z,972.90
2023-01-09T04:09:25.288Z,972.88
2023-01-09T04:10:25.314Z,972.81
2023-01-09T04:11:25.301Z,972.75
2023-01-09T04:12:25.270Z,972.70
2023-01-09T04:13:25.265Z,972.65
2023-01-09T04:14:25.253Z,972.71
2023-01-09T04:15:25.273Z,972.72
2023-01-09T04:16:25.283Z,972.74
2023-01-09T04:17:25.225Z,972.71
2023-01-09T04:18:25.232Z,972.73
2023-01-09T04:19:25.221Z,972.83
2023-01-09T04:20:25.241Z,972.88
2023-01-09T04:21:25.213Z,973.05
2023-01-09T04:22:25.210Z,973.10
2023-01-09T04:23:25.193Z,973.08
2023-01-09T04:24:25.177Z,973.16
2023-01-09T04:25:25.197Z,973.23
2023-01-09T04:26:25.168Z,973.33
2023-01-09T04:27:25.161Z,973.37
2023-01-09T04:28:25.161Z,973.40
2023-01-09T04:29:25.138Z,973.43
2023-01-09T04:30:25.174Z,973.47
2023-01-09T04:31:25.155Z,973.50
2023-01-09T04:32:25.120Z,973.41
2023-01-09T04:33:25.118Z,973.48
2023-01-09T04:34:25.103Z,973.40
2023-01-09T04:35:25.129Z,973.41
2023-01-09T04:36:25.085Z,973.40
2023-01-09T04:37:25.080Z,973.39
2023-01-09T04:38:25.069Z,973.36
2023-01-09T04:39:25.061Z,973.40
2023-01-09T04:40:25.082Z,973.43
2023-01-09T04:41:25.051Z,973.47
2023-01-09T04:42:25.071Z,973.51
2023-01-09T04:43:25.045Z,973.37
2023-01-09T04:44:25.021Z,973.42
2023-01-09T04:45:25.042Z,973.37
2023-01-09T04:46:25.007Z,973.42
2023-01-09T04:47:24.999Z,973.37
2023-01-09T04:48:24.999Z,973.34
2023-01-09T04:49:24.985Z,973.31
2023-01-09T04:50:25.001Z,973.34
2023-01-09T04:51:24.970Z,973.42
2023-01-09T04:52:24.954Z,973.39
2023-01-09T04:53:24.958Z,973.36
2023-01-09T04:54:24.940Z,973.38
2023-01-09T04:55:24.966Z,973.46
2023-01-09T04:56:24.929Z,973.47
2023-01-09T04:57:24.920Z,973.45
2023-01-09T04:58:24.915Z,973.50
2023-01-09T04:59:24.908Z,973.55
2023-01-09T05:00:24.919Z,973.59
2023-01-09T05:01:25.004Z,973.62
2023-01-09T05:02:24.883Z,973.67
2023-01-09T05:03:24.880Z,973.79
2023-01-09T05:04:24.897Z,973.67
2023-01-09T05:05:24.885Z,973.84
2023-01-09T05:06:24.855Z,973.83
2023-01-09T05:07:24.845Z,973.83
2023-01-09T05:08:24.840Z,973.92
2023-01-09T05:09:24.839Z,974.00
2023-01-09T05:10:24.853Z,973.95
2023-01-09T05:11:24.832Z,974.02
2023-01-09T05:12:24.808Z,974.05
2023-01-09T05:13:24.797Z,974.09
2023-01-09T05:14:24.789Z,974.15
2023-01-09T05:15:24.801Z,974.13
2023-01-09T05:16:25.897Z,974.13
2023-01-09T05:17:24.764Z,974.22
2023-01-09T05:18:24.761Z,974.20
2023-01-09T05:19:24.747Z,974.15
2023-01-09T05:20:24.747Z,974.25
2023-01-09T05:21:24.821Z,974.26
2023-01-09T05:22:24.725Z,974.28
2023-01-09T05:23:24.721Z,974.37
2023-01-09T05:24:24.708Z,974.39
2023-01-09T05:25:24.707Z,974.39
2023-01-09T05:26:24.718Z,974.36
2023-01-09T05:27:24.687Z,974.36
2023-01-09T05:28:24.679Z,974.30
2023-01-09T05:29:24.668Z,974.31
2023-01-09T05:30:24.664Z,974.36
2023-01-09T05:31:24.721Z,974.39
2023-01-09T05:32:25.644Z,974.38
2023-01-09T05:33:24.681Z,974.47
2023-01-09T05:34:24.664Z,974.51
2023-01-09T05:35:24.625Z,974.48
2023-01-09T05:36:24.643Z,974.49
2023-01-09T05:37:24.615Z,974.54
2023-01-09T05:38:24.604Z,974.49
2023-01-09T05:39:24.600Z,974.46
2023-01-09T05:40:29.072Z,974.52
2023-01-09T05:41:26.614Z,974.62
2023-01-09T05:42:24.584Z,974.56
2023-01-09T05:43:24.561Z,974.59
2023-01-09T05:44:24.561Z,974.59
2023-01-09T05:45:25.589Z,974.70
2023-01-09T05:46:24.576Z,974.76
2023-01-09T05:47:24.540Z,974.72
2023-01-09T05:48:24.550Z,974.76
2023-01-09T05:49:24.532Z,974.81
2023-01-09T05:50:24.523Z,974.82
2023-01-09T05:51:24.527Z,974.79
2023-01-09T05:52:24.512Z,974.88
2023-01-09T05:53:24.501Z,974.91
2023-01-09T05:54:24.493Z,974.91
2023-01-09T05:55:24.484Z,975.01
2023-01-09T05:56:24.487Z,974.96
2023-01-09T05:57:24.461Z,975.04
2023-01-09T05:58:24.450Z,975.04
2023-01-09T05:59:24.447Z,974.99
2023-01-09T06:00:24.451Z,975.01
2023-01-09T06:01:24.551Z,975.03
2023-01-09T06:02:24.516Z,975.08
2023-01-09T06:03:24.415Z,975.12
2023-01-09T06:04:24.408Z,975.08
2023-01-09T06:05:24.394Z,975.11
2023-01-09T06:06:24.416Z,975.14
2023-01-09T06:07:24.394Z,975.16
2023-01-09T06:08:24.385Z,975.17
2023-01-09T06:09:24.368Z,975.14
2023-01-09T06:10:24.373Z,975.07
2023-01-09T06:11:24.384Z,975.20
2023-01-09T06:12:24.342Z,975.16
2023-01-09T06:13:24.340Z,975.14
2023-01-09T06:14:24.329Z,975.17
2023-01-09T06:15:24.327Z,975.22
2023-01-09T06:16:24.358Z,975.28
2023-01-09T06:17:24.305Z,975.29
2023-01-09T06:18:24.296Z,975.28
2023-01-09T06:19:24.295Z,975.26
2023-01-09T06:20:24.273Z,975.33
2023-01-09T06:21:24.333Z,975.33
2023-01-09T06:22:25.273Z,975.27
2023-01-09T06:23:24.276Z,975.30
2023-01-09T06:24:24.248Z,975.34
2023-01-09T06:25:24.248Z,975.34
2023-01-09T06:26:24.262Z,975.45
2023-01-09T06:27:24.228Z,975.51
2023-01-09T06:28:24.223Z,975.46
2023-01-09T06:29:24.208Z,975.43
2023-01-09T06:30:24.208Z,975.37
2023-01-09T06:31:24.233Z,975.38
2023-01-09T06:32:24.220Z,975.40
2023-01-09T06:33:24.183Z,975.42
2023-01-09T06:34:24.173Z,975.48
2023-01-09T06:35:24.174Z,975.44
2023-01-09T06:36:24.184Z,975.44
2023-01-09T06:37:24.146Z,975.45
2023-01-09T06:38:24.148Z,975.46
2023-01-09T06:39:24.140Z,975.47
2023-01-09T06:40:24.141Z,975.48
2023-01-09T06:41:24.144Z,975.45
2023-01-09T06:42:25.117Z,975.34
2023-01-09T06:43:24.110Z,975.45
2023-01-09T06:44:24.096Z,975.35
2023-01-09T06:45:24.098Z,975.38
2023-01-09T06:46:24.179Z,975.46
2023-01-09T06:47:24.075Z,975.45
2023-01-09T06:48:24.077Z,975.45
2023-01-09T06:49:24.055Z,975.44
2023-01-09T06:50:24.056Z,975.46
2023-01-09T06:51:24.073Z,975.44
2023-01-09T06:52:24.038Z,975.47
2023-01-09T06:53:24.023Z,975.54
2023-01-09T06:54:24.023Z,975.49
2023-01-09T06:55:24.068Z,975.42
2023-01-09T06:56:24.031Z,975.52
2023-01-09T06:57:24.020Z,975.50
2023-01-09T06:58:23.989Z,975.49
2023-01-09T06:59:23.985Z,975.46
2023-01-09T07:00:23.971Z,975.59
2023-01-09T07:01:24.094Z,975.54
2023-01-09T07:02:23.958Z,975.50
2023-01-09T07:03:23.979Z,975.52
2023-01-09T07:04:24.015Z,975.59
2023-01-09T07:05:23.936Z,975.54
2023-01-09T07:06:23.950Z,975.57
2023-01-09T07:07:23.922Z,975.69
2023-01-09T07:08:23.905Z,975.63
2023-01-09T07:09:23.902Z,975.70
2023-01-09T07:10:23.900Z,975.65
2023-01-09T07:11:23.909Z,975.73
2023-01-09T07:12:23.878Z,975.75
2023-01-09T07:13:23.864Z,975.73
2023-01-09T07:14:24.856Z,975.78
2023-01-09T07:15:23.859Z,975.72
2023-01-09T07:16:23.939Z,975.81
2023-01-09T07:17:23.848Z,975.86
2023-01-09T07:18:23.834Z,975.76
2023-01-09T07:19:23.816Z,975.87
2023-01-09T07:20:23.815Z,975.83
2023-01-09T07:21:23.841Z,975.87
2023-01-09T07:22:23.794Z,975.89
2023-01-09T07:23:23.812Z,975.96
2023-01-09T07:24:23.781Z,975.92
2023-01-09T07:25:23.769Z,975.94
2023-01-09T07:26:23.805Z,976.00
2023-01-09T07:27:23.775Z,975.98
2023-01-09T07:28:23.763Z,976.03
2023-01-09T07:29:23.750Z,976.07
2023-01-09T07:30:23.745Z,976.09
2023-01-09T07:31:23.804Z,976.15
2023-01-09T07:32:23.725Z,976.16
2023-01-09T07:33:23.716Z,976.13
2023-01-09T07:34:23.703Z,976.16
2023-01-09T07:35:23.715Z,976.21
2023-01-09T07:36:23.718Z,976.16
2023-01-09T07:37:23.679Z,976.27
2023-01-09T07:38:23.683Z,976.27
2023-01-09T07:39:23.664Z,976.27
2023-01-09T07:40:23.666Z,976.30
2023-01-09T07:41:23.677Z,976.30
2023-01-09T07:42:23.650Z,976.25
2023-01-09T07:43:23.640Z,976.29
2023-01-09T07:44:23.629Z,976.24
2023-01-09T07:45:23.649Z,976.25
2023-01-09T07:46:23.696Z,976.28
2023-01-09T07:47:23.600Z,976.24
2023-01-09T07:48:23.601Z,976.23
2023-01-09T07:49:25.358Z,976.29
2023-01-09T07:50:23.578Z,976.23
2023-01-09T07:51:23.607Z,976.34
2023-01-09T07:52:23.584Z,976.35
2023-01-09T07:53:23.562Z,976.38
2023-01-09T07:54:23.557Z,976.37
2023-01-09T07:55:23.562Z,976.49
2023-01-09T07:56:23.564Z,976.43
2023-01-09T07:57:23.530Z,976.46
2023-01-09T07:58:23.527Z,976.46
2023-01-09T07:59:23.515Z,976.48
2023-01-09T08:00:23.511Z,976.47
2023-01-09T08:01:23.643Z,976.50
2023-01-09T08:02:23.595Z,976.58
2023-01-09T08:03:23.483Z,976.64
2023-01-09T08:04:23.478Z,976.57
2023-01-09T08:05:23.483Z,976.57
2023-01-09T08:06:23.481Z,976.62
2023-01-09T08:07:23.463Z,976.61
2023-01-09T08:08:23.456Z,976.63
2023-01-09T08:09:23.441Z,976.69
2023-01-09T08:10:23.432Z,976.67
2023-01-09T08:11:23.454Z,976.65
2023-01-09T08:12:23.416Z,976.58
2023-01-09T08:13:23.419Z,976.62
2023-01-09T08:14:23.402Z,976.61
2023-01-09T08:15:23.393Z,976.66
2023-01-09T08:16:23.448Z,976.58
2023-01-09T08:17:25.207Z,976.65
2023-01-09T08:18:23.374Z,976.57
2023-01-09T08:19:23.359Z,976.66
2023-01-09T08:20:23.359Z,976.61
2023-01-09T08:21:23.376Z,976.65
2023-01-09T08:22:23.328Z,976.59
2023-01-09T08:23:24.348Z,976.64
2023-01-09T08:24:23.323Z,976.62
2023-01-09T08:25:23.342Z,976.64
2023-01-09T08:26:23.331Z,976.64
2023-01-09T08:27:23.301Z,976.59
2023-01-09T08:28:23.293Z,976.62
2023-01-09T08:29:23.301Z,976.71
2023-01-09T08:30:23.293Z,976.55
2023-01-09T08:31:23.326Z,976.57
2023-01-09T08:32:23.263Z,976.62
2023-01-09T08:33:23.261Z,976.67
2023-01-09T08:34:23.256Z,976.65
2023-01-09T08:35:23.247Z,976.69
2023-01-09T08:36:23.299Z,976.66
2023-01-09T08:37:23.236Z,976.71
2023-01-09T08:38:24.214Z,976.70
2023-01-09T08:39:23.203Z,976.79
2023-01-09T08:40:23.201Z,976.75
2023-01-09T08:41:23.225Z,976.72
2023-01-09T08:42:23.186Z,976.80
2023-01-09T08:43:23.181Z,976.75
2023-01-09T08:44:23.172Z,976.80
2023-01-09T08:45:23.158Z,976.82
2023-01-09T08:46:23.232Z,976.87
2023-01-09T08:47:23.140Z,976.83
2023-01-09T08:48:23.135Z,976.90
2023-01-09T08:49:23.132Z,976.90
2023-01-09T08:50:23.123Z,976.88
2023-01-09T08:51:23.113Z,976.95
2023-01-09T08:52:23.138Z,976.96
2023-01-09T08:53:23.100Z,976.86
2023-01-09T08:54:23.097Z,976.85
2023-01-09T08:55:23.116Z,976.83
2023-01-09T08:56:23.087Z,976.79
2023-01-09T08:57:23.104Z,976.82
2023-01-09T08:58:23.062Z,976.76
2023-01-09T08:59:23.055Z,976.77
2023-01-09T09:00:23.047Z,976.78
2023-01-09T09:01:23.050Z,976.77
2023-01-09T09:02:23.112Z,976.85
2023-01-09T09:03:23.026Z,976.77
2023-01-09T09:04:23.049Z,976.85
2023-01-09T09:05:23.009Z,976.84
2023-01-09T09:06:23.004Z,976.90
2023-01-09T09:07:23.019Z,976.82
2023-01-09T09:08:22.985Z,976.78
2023-01-09T09:09:22.977Z,976.76
2023-01-09T09:10:22.979Z,976.74
2023-01-09T09:11:22.964Z,976.72
2023-01-09T09:12:23.006Z,976.76
2023-01-09T09:13:22.946Z,976.78
2023-01-09T09:14:24.956Z,976.84
2023-01-09T09:15:22.928Z,976.77
2023-01-09T09:16:22.971Z,976.90
2023-01-09T09:17:22.936Z,976.83
2023-01-09T09:18:22.941Z,976.93
2023-01-09T09:19:22.896Z,976.83
2023-01-09T09:20:23.006Z,976.87
2023-01-09T09:21:22.885Z,976.80
2023-01-09T09:22:22.904Z,976.82
2023-01-09T09:23:22.867Z,976.85
2023-01-09T09:24:22.859Z,976.93
2023-01-09T09:25:23.845Z,976.84
2023-01-09T09:26:22.843Z,976.90
2023-01-09T09:27:22.843Z,976.95
2023-01-09T09:28:22.849Z,977.00
2023-01-09T09:29:22.826Z,977.03
2023-01-09T09:30:22.811Z,977.00
2023-01-09T09:31:22.870Z,977.05
2023-01-09T09:32:22.806Z,977.06
2023-01-09T09:33:22.828Z,977.04
2023-01-09T09:34:22.783Z,977.09
2023-01-09T09:35:22.797Z,977.06
2023-01-09T09:36:22.782Z,977.14
2023-01-09T09:37:22.753Z,977.12
2023-01-09T09:38:22.782Z,977.08
2023-01-09T09:39:22.744Z,977.16
2023-01-09T09:40:22.729Z,977.15
2023-01-09T09:41:22.739Z,977.16
2023-01-09T09:42:22.718Z,977.15
2023-01-09T09:43:22.736Z,977.26
2023-01-09T09:44:22.699Z,977.26
2023-01-09T09:45:22.689Z,977.22
2023-01-09T09:46:22.753Z,977.24
2023-01-09T09:47:22.672Z,977.26
2023-01-09T09:48:22.691Z,977.18
2023-01-09T09:49:22.655Z,977.21
2023-01-09T09:50:22.703Z,977.31
2023-01-09T09:51:22.648Z,977.31
2023-01-09T09:52:22.631Z,977.20
2023-01-09T09:53:22.649Z,977.27
2023-01-09T09:54:22.615Z,977.25
2023-01-09T09:55:22.608Z,977.28
2023-01-09T09:56:22.612Z,977.37
2023-01-09T09:57:22.624Z,977.25
2023-01-09T09:58:22.612Z,977.39
2023-01-09T09:59:22.581Z,977.29
2023-01-09T10:00:22.609Z,977.28
2023-01-09T10:01:22.557Z,977.30
2023-01-09T10:02:22.600Z,977.35
2023-01-09T10:03:33.080Z,977.22
2023-01-09T10:04:24.539Z,977.25
2023-01-09T10:05:22.546Z,977.29
2023-01-09T10:06:22.522Z,977.25
2023-01-09T10:07:22.524Z,977.27
2023-01-09T10:08:22.505Z,977.21
2023-01-09T10:09:22.522Z,977.19
2023-01-09T10:10:22.579Z,977.17
2023-01-09T10:11:22.485Z,977.21
2023-01-09T10:12:22.482Z,977.16
2023-01-09T10:13:22.495Z,977.21
2023-01-09T10:14:24.648Z,977.23
2023-01-09T10:15:23.452Z,977.22
2023-01-09T10:16:22.617Z,977.21
2023-01-09T10:17:22.437Z,977.21
2023-01-09T10:18:22.434Z,977.22
2023-01-09T10:19:22.451Z,977.25
2023-01-09T10:20:22.433Z,977.22
2023-01-09T10:21:22.404Z,977.21
2023-01-09T10:22:24.416Z,977.15
2023-01-09T10:23:22.389Z,977.21
2023-01-09T10:24:22.428Z,977.18
2023-01-09T10:25:22.382Z,977.17
2023-01-09T10:26:22.415Z,977.14
2023-01-09T10:27:22.377Z,977.17
2023-01-09T10:28:22.351Z,977.14
2023-01-09T10:29:22.368Z,977.17
2023-01-09T10:30:22.327Z,977.17
2023-01-09T10:31:23.354Z,977.14
2023-01-09T10:32:22.321Z,977.18
2023-01-09T10:33:22.350Z,977.16
2023-01-09T10:34:22.331Z,977.12
2023-01-09T10:35:22.296Z,977.10
2023-01-09T10:36:22.293Z,977.13
2023-01-09T10:37:22.283Z,977.13
2023-01-09T10:38:22.302Z,977.12
2023-01-09T10:39:22.270Z,977.15
2023-01-09T10:40:22.257Z,977.19
2023-01-09T10:41:22.274Z,977.13
2023-01-09T10:42:22.237Z,977.14
2023-01-09T10:43:22.239Z,977.21
2023-01-09T10:44:22.261Z,977.17
2023-01-09T10:45:22.222Z,977.20
2023-01-09T10:46:22.326Z,977.24
2023-01-09T10:47:22.200Z,977.25
2023-01-09T10:48:22.186Z,977.21
2023-01-09T10:49:22.206Z,977.26
2023-01-09T10:50:22.176Z,977.24
2023-01-09T10:51:22.176Z,977.22
2023-01-09T10:52:22.245Z,977.19
2023-01-09T10:53:22.173Z,977.18
2023-01-09T10:54:22.191Z,977.20
2023-01-09T10:55:22.142Z,977.14
2023-01-09T10:56:22.126Z,977.18
2023-01-09T10:57:22.120Z,977.20
2023-01-09T10:58:22.112Z,977.19
2023-01-09T10:59:22.131Z,977.22
2023-01-09T11:00:23.578Z,977.21
2023-01-09T11:01:23.094Z,977.11
2023-01-09T11:02:22.092Z,977.23
2023-01-09T11:03:22.155Z,977.23
2023-01-09T11:04:22.068Z,977.19
2023-01-09T11:05:22.060Z,977.22
2023-01-09T11:06:22.051Z,977.21
2023-01-09T11:07:22.048Z,977.15
2023-01-09T11:08:22.080Z,977.12
2023-01-09T11:09:22.028Z,977.16
2023-01-09T11:10:22.878Z,977.15
2023-01-09T11:11:22.013Z,977.13
2023-01-09T11:12:22.005Z,977.12
2023-01-09T11:13:22.028Z,977.13
2023-01-09T11:14:21.995Z,977.13
2023-01-09T11:15:21.991Z,977.18
2023-01-09T11:16:22.078Z,977.23
2023-01-09T11:17:21.972Z,977.18
2023-01-09T11:18:21.993Z,977.26
2023-01-09T11:19:21.955Z,977.18
2023-01-09T11:20:21.947Z,977.27
2023-01-09T11:21:21.935Z,977.33
2023-01-09T11:22:21.927Z,977.24
2023-01-09T11:23:21.941Z,977.29
2023-01-09T11:24:21.912Z,977.26
2023-01-09T11:25:21.899Z,977.25
2023-01-09T11:26:21.909Z,977.27
2023-01-09T11:27:21.887Z,977.23
2023-01-09T11:28:21.919Z,977.20
2023-01-09T11:29:21.869Z,977.25
2023-01-09T11:30:21.880Z,977.20
2023-01-09T11:31:21.884Z,977.21
2023-01-09T11:32:21.858Z,977.24
2023-01-09T11:33:21.841Z,977.22
2023-01-09T11:34:21.854Z,977.18
2023-01-09T11:35:21.828Z,977.20
2023-01-09T11:36:21.852Z,977.24
2023-01-09T11:37:21.814Z,977.26
2023-01-09T11:38:21.802Z,977.28
2023-01-09T11:39:21.816Z,977.30
2023-01-09T11:40:21.818Z,977.13
2023-01-09T11:41:21.776Z,977.22
2023-01-09T11:42:21.777Z,977.20
2023-01-09T11:43:21.788Z,977.20
2023-01-09T11:44:21.777Z,977.14
2023-01-09T11:45:21.749Z,977.11
2023-01-09T11:46:21.874Z,977.16
2023-01-09T11:47:21.735Z,977.08
2023-01-09T11:48:21.731Z,977.07
2023-01-09T11:49:21.744Z,977.17
2023-01-09T11:50:21.726Z,977.18
2023-01-09T11:51:21.712Z,977.19
2023-01-09T11:52:21.703Z,977.21
2023-01-09T11:53:21.701Z,977.21
2023-01-09T11:54:21.722Z,977.20
2023-01-09T11:55:22.577Z,977.19
2023-01-09T11:56:21.668Z,977.18
2023-01-09T11:57:21.663Z,977.23
2023-01-09T11:58:21.657Z,977.23
2023-01-09T11:59:21.671Z,977.22
2023-01-09T12:00:21.683Z,977.22
2023-01-09T12:01:21.629Z,977.19
2023-01-09T12:02:21.692Z,977.20
2023-01-09T12:03:21.661Z,977.20
2023-01-09T12:04:21.637Z,977.27
2023-01-09T12:05:21.596Z,977.20
2023-01-09T12:06:21.596Z,977.22
2023-01-09T12:07:21.584Z,977.23
2023-01-09T12:08:21.577Z,977.21
2023-01-09T12:09:21.590Z,977.23
2023-01-09T12:10:21.565Z,977.18
2023-01-09T12:11:21.559Z,977.22
2023-01-09T12:12:21.541Z,977.16
2023-01-09T12:13:21.541Z,977.18
2023-01-09T12:14:21.564Z,977.17
2023-01-09T12:15:21.526Z,977.19
2023-01-09T12:16:21.585Z,977.21
2023-01-09T12:17:21.510Z,977.22
2023-01-09T12:18:21.508Z,977.17
2023-01-09T12:19:21.520Z,977.09
2023-01-09T12:20:21.487Z,977.12
2023-01-09T12:21:21.486Z,977.24
2023-01-09T12:22:21.484Z,977.21
2023-01-09T12:23:21.470Z,977.23
2023-01-09T12:24:21.475Z,977.16
2023-01-09T12:25:22.448Z,977.12
2023-01-09T12:26:21.442Z,977.11
2023-01-09T12:27:21.437Z,977.16
2023-01-09T12:28:21.439Z,977.17